Terminal Aerodrome Forecast
Issued by NWS Paducah, KY

Home | Current Version | Previous Version | Text Only | Print | Product List | Glossary On
Versions: 1 2 3 4 5 6 7 8 9 10 11 12 13 14 15 16 17 18 19 20 21
520
FTUS43 KPAH 302059 AAB
TAFPAH
TAF AMD
KPAH 302059Z 3021/3118 22015G25KT P6SM VCTS SCT035CB BKN080
     FM302200 23011G21KT P6SM SCT040
     FM310200 24008KT P6SM VCSH SCT015 BKN035
     FM310800 26007KT P6SM OVC015
     FM311600 28010G17KT P6SM BKN020=

USA.gov is the U.S. government's official web portal to all federal, state and local government web resources and services.